Time;durP1;ratioP1;P1;durP2;ratioP2;P2;SDS_P1;SDS_P2;PMS_P1;PMS_P2;Temp;Humidity;BMP_temperature;BMP_pressure;BME280_temperature;BME280_humidity;BME280_pressure;Samples;Min_cycle;Max_cycle;Signal;HPM_P1;HPM_P2
2021/01/31 00:02:15;;;;;;;19.60;12.73;;;5.20;99.90;;;;;;5030090;28;20449;-52
2021/01/31 00:04:46;;;;;;;19.03;12.13;;;5.10;99.90;;;;;;5029922;28;20524;-52
2021/01/31 00:07:13;;;;;;;19.90;12.40;;;5.10;99.90;;;;;;5030257;28;20448;-52
2021/01/31 00:09:39;;;;;;;23.30;12.30;;;5.10;99.90;;;;;;5030368;28;20971;-52
2021/01/31 00:12:06;;;;;;;19.73;11.53;;;5.10;99.90;;;;;;5030013;28;20475;-51
2021/01/31 00:14:33;;;;;;;18.87;11.30;;;5.30;99.90;;;;;;5030097;28;20468;-51
2021/01/31 00:17:00;;;;;;;19.93;11.37;;;5.30;99.90;;;;;;5028865;28;20448;-52
2021/01/31 00:19:27;;;;;;;17.80;10.47;;;5.30;99.90;;;;;;5029086;28;20482;-53
2021/01/31 00:21:57;;;;;;;16.70;10.30;;;5.50;99.90;;;;;;5030543;28;20453;-52
2021/01/31 00:24:24;;;;;;;18.67;10.23;;;5.50;99.90;;;;;;5030027;28;20460;-52
2021/01/31 00:26:50;;;;;;;16.23;10.03;;;5.40;99.90;;;;;;5014505;28;20455;-52
2021/01/31 00:29:17;;;;;;;16.93;10.00;;;5.60;99.90;;;;;;5029709;28;20448;-53
2021/01/31 00:31:45;;;;;;;16.17;9.70;;;5.60;99.90;;;;;;5030332;28;20486;-52
2021/01/31 00:34:13;;;;;;;15.00;9.03;;;5.40;99.90;;;;;;5029641;28;20469;-53
2021/01/31 00:36:40;;;;;;;13.60;9.13;;;5.40;99.90;;;;;;5029116;28;20813;-52
2021/01/31 00:39:08;;;;;;;16.90;9.33;;;5.60;99.90;;;;;;5030052;28;20481;-52
2021/01/31 00:41:35;;;;;;;15.40;9.50;;;5.40;99.90;;;;;;5029783;28;20464;-52
2021/01/31 00:44:02;;;;;;;16.27;8.73;;;5.40;99.90;;;;;;5030380;28;20472;-53
2021/01/31 00:46:33;;;;;;;18.57;10.03;;;5.40;99.90;;;;;;5030110;28;20507;-52
2021/01/31 00:49:00;;;;;;;16.70;9.50;;;5.40;99.90;;;;;;5030272;28;20518;-53
2021/01/31 00:51:27;;;;;;;15.73;9.70;;;5.40;99.90;;;;;;5030134;28;20499;-53
2021/01/31 00:53:54;;;;;;;15.23;9.03;;;5.30;99.90;;;;;;5029778;28;20538;-53
2021/01/31 00:56:20;;;;;;;15.10;8.80;;;5.40;99.90;;;;;;5029920;28;20834;-51
2021/01/31 00:58:47;;;;;;;14.07;8.30;;;5.40;99.90;;;;;;5030067;28;20958;-52
2021/01/31 01:01:14;;;;;;;10.43;7.50;;;5.40;99.90;;;;;;5030190;28;20842;-52
2021/01/31 01:03:44;;;;;;;10.70;7.10;;;5.60;99.90;;;;;;5029521;28;20866;-52
2021/01/31 01:06:11;;;;;;;9.50;6.60;;;5.40;99.90;;;;;;5030224;28;20459;-53
2021/01/31 01:08:38;;;;;;;9.87;6.20;;;5.50;99.90;;;;;;5029641;28;20938;-52
2021/01/31 01:11:05;;;;;;;8.60;6.03;;;5.50;99.90;;;;;;5015569;28;20470;-53
2021/01/31 01:13:32;;;;;;;8.37;5.00;;;5.60;99.90;;;;;;5031166;28;20468;-52
2021/01/31 01:15:59;;;;;;;8.37;5.83;;;5.70;99.90;;;;;;5044332;28;20441;-52
2021/01/31 01:18:25;;;;;;;9.70;5.87;;;5.80;99.90;;;;;;5033859;28;20503;-52
2021/01/31 01:20:52;;;;;;;8.77;5.30;;;5.70;99.90;;;;;;5033888;28;20480;-52
2021/01/31 01:23:18;;;;;;;8.40;5.50;;;5.80;99.90;;;;;;5034131;28;20480;-53
2021/01/31 01:25:46;;;;;;;8.13;5.30;;;5.70;99.90;;;;;;5034067;28;20448;-52
2021/01/31 01:28:14;;;;;;;9.30;5.87;;;5.70;99.90;;;;;;5037067;28;20554;-53
2021/01/31 01:30:40;;;;;;;8.47;5.90;;;5.70;99.90;;;;;;5036190;28;21008;-52
2021/01/31 01:33:07;;;;;;;8.30;6.10;;;5.70;99.90;;;;;;5033790;28;20860;-53
2021/01/31 01:35:33;;;;;;;10.60;5.70;;;5.60;99.90;;;;;;5032534;28;21317;-53
2021/01/31 01:38:00;;;;;;;6.93;5.27;;;5.70;99.90;;;;;;5033107;28;20459;-52
2021/01/31 01:40:30;;;;;;;8.80;5.50;;;5.70;99.90;;;;;;5033150;28;20491;-52
2021/01/31 01:42:58;;;;;;;8.27;5.50;;;5.70;99.90;;;;;;5040751;28;20472;-52
2021/01/31 01:45:25;;;;;;;12.40;6.17;;;5.70;99.90;;;;;;5032869;28;20456;-53
2021/01/31 01:47:54;;;;;;;9.73;5.83;;;5.70;99.90;;;;;;5033206;28;20460;-52
2021/01/31 01:50:33;;;;;;;9.40;5.90;;;5.60;99.90;;;;;;5032493;28;20526;-52
2021/01/31 01:53:00;;;;;;;8.80;5.57;;;5.70;99.90;;;;;;5032872;28;20982;-53
2021/01/31 01:55:30;;;;;;;11.20;5.53;;;5.50;99.90;;;;;;5032508;28;20460;-52
2021/01/31 01:58:01;;;;;;;9.70;6.00;;;5.60;99.90;;;;;;5032765;28;20510;-52
2021/01/31 02:00:27;;;;;;;8.77;5.37;;;5.60;99.90;;;;;;5032638;28;20512;-53
2021/01/31 02:02:59;;;;;;;9.93;6.03;;;5.50;99.90;;;;;;5032464;28;20570;-52
2021/01/31 02:05:26;;;;;;;10.53;6.37;;;5.50;99.90;;;;;;5032404;28;20999;-53
2021/01/31 02:07:53;;;;;;;11.60;7.20;;;5.50;99.90;;;;;;5033000;28;20837;-52
2021/01/31 02:10:24;;;;;;;9.73;6.60;;;5.40;99.90;;;;;;5033027;28;20806;-53
2021/01/31 02:12:55;;;;;;;12.00;7.03;;;5.40;99.90;;;;;;5032269;28;20542;-53
2021/01/31 02:15:22;;;;;;;14.10;8.37;;;5.30;99.90;;;;;;5032408;28;20448;-53
2021/01/31 02:18:03;;;;;;;12.53;7.90;;;5.30;99.90;;;;;;5032073;28;20449;-53
2021/01/31 02:21:13;;;;;;;11.90;6.80;;;5.40;99.90;;;;;;5032200;28;20507;-53
2021/01/31 02:24:13;;;;;;;14.10;7.00;;;5.40;99.90;;;;;;5040733;28;20473;-53
2021/01/31 02:27:00;;;;;;;13.90;8.00;;;5.40;99.90;;;;;;5013454;28;20508;-52
2021/01/31 02:30:02;;;;;;;16.13;9.17;;;5.30;99.90;;;;;;5029876;28;20453;-53
2021/01/31 02:33:15;;;;;;;15.27;8.13;;;5.20;99.90;;;;;;5030834;28;20913;-53
2021/01/31 02:35:46;;;;;;;15.27;8.70;;;5.20;99.90;;;;;;5022668;28;20957;-53
2021/01/31 02:38:20;;;;;;;18.43;9.63;;;5.10;99.90;;;;;;5031567;28;21022;-53
2021/01/31 02:40:55;;;;;;;18.70;10.97;;;5.00;99.90;;;;;;5031922;28;20492;-53
2021/01/31 02:43:30;;;;;;;14.33;9.00;;;5.00;99.90;;;;;;5031857;28;20522;-53
2021/01/31 02:46:01;;;;;;;15.37;9.70;;;5.10;99.90;;;;;;5048997;28;20458;-53
2021/01/31 02:48:35;;;;;;;19.13;10.03;;;5.20;99.90;;;;;;5031509;28;20464;-53
2021/01/31 02:51:06;;;;;;;17.00;9.50;;;5.30;99.90;;;;;;5030743;28;20963;-53
2021/01/31 02:53:36;;;;;;;15.97;8.87;;;5.40;99.90;;;;;;5031327;28;21016;-53
2021/01/31 02:56:06;;;;;;;14.97;8.97;;;5.40;99.90;;;;;;5031642;28;20448;-52
2021/01/31 02:58:37;;;;;;;12.70;8.40;;;5.40;99.90;;;;;;5032560;28;20468;-53
2021/01/31 03:01:09;;;;;;;15.40;8.27;;;5.30;99.90;;;;;;5026886;28;20484;-53
2021/01/31 03:03:41;;;;;;;12.90;7.43;;;5.40;99.90;;;;;;5031737;28;20481;-53
2021/01/31 03:06:13;;;;;;;12.33;7.97;;;5.30;99.90;;;;;;5031209;28;20451;-54
2021/01/31 03:08:48;;;;;;;12.33;7.57;;;5.40;99.90;;;;;;5031107;28;20452;-53
2021/01/31 03:11:19;;;;;;;13.33;8.23;;;5.40;99.90;;;;;;5034984;28;20462;-53
2021/01/31 03:13:53;;;;;;;12.90;7.30;;;5.40;99.90;;;;;;5037994;28;20469;-53
2021/01/31 03:16:24;;;;;;;11.33;7.63;;;5.30;99.90;;;;;;5011991;28;20833;-53
2021/01/31 03:18:56;;;;;;;14.90;8.27;;;5.30;99.90;;;;;;5018138;28;20453;-53
2021/01/31 03:21:28;;;;;;;14.57;8.37;;;5.20;99.90;;;;;;5031076;28;20464;-53
2021/01/31 03:24:01;;;;;;;14.27;8.47;;;5.10;99.90;;;;;;5030625;28;20466;-53
2021/01/31 03:26:45;;;;;;;17.80;10.13;;;5.10;99.90;;;;;;5046566;28;20464;-52
2021/01/31 03:29:13;;;;;;;17.43;9.83;;;5.10;99.90;;;;;;5015740;28;20456;-53
2021/01/31 03:31:43;;;;;;;17.77;9.40;;;5.10;99.90;;;;;;5031530;28;20451;-53
2021/01/31 03:34:15;;;;;;;19.67;10.70;;;5.00;99.90;;;;;;5030350;28;20475;-53
2021/01/31 03:36:47;;;;;;;19.20;10.63;;;5.00;99.90;;;;;;5030456;28;20449;-53
2021/01/31 03:39:15;;;;;;;24.27;12.07;;;5.20;99.90;;;;;;5034959;28;20949;-53
2021/01/31 03:41:42;;;;;;;19.27;10.70;;;5.10;99.90;;;;;;5030691;28;20518;-53
2021/01/31 03:44:09;;;;;;;21.07;11.63;;;5.00;99.90;;;;;;5030393;28;20507;-52
2021/01/31 03:46:39;;;;;;;21.73;11.40;;;5.00;99.90;;;;;;5030291;28;20449;-53
2021/01/31 03:49:11;;;;;;;20.53;11.23;;;5.00;99.90;;;;;;5030506;28;20455;-53
2021/01/31 03:51:39;;;;;;;23.90;12.57;;;5.00;99.90;;;;;;5030642;28;20452;-54
2021/01/31 03:54:06;;;;;;;22.27;12.10;;;5.10;99.90;;;;;;5043984;28;20479;-53
2021/01/31 03:56:37;;;;;;;21.50;11.70;;;5.10;99.90;;;;;;5041450;28;20451;-53
2021/01/31 03:59:07;;;;;;;21.27;11.83;;;5.10;99.90;;;;;;5014612;28;20506;-53
2021/01/31 04:01:37;;;;;;;21.43;12.00;;;5.10;99.90;;;;;;5030395;28;20448;-53
2021/01/31 04:04:12;;;;;;;21.60;11.70;;;5.10;99.90;;;;;;5030776;28;20472;-53
2021/01/31 04:06:41;;;;;;;23.80;11.17;;;5.00;99.90;;;;;;5035553;28;21019;-54
2021/01/31 04:09:11;;;;;;;23.07;12.37;;;5.10;99.90;;;;;;5030709;28;20457;-53
2021/01/31 04:11:39;;;;;;;25.30;12.20;;;5.00;99.90;;;;;;5030170;28;20535;-53
2021/01/31 04:14:11;;;;;;;21.07;11.33;;;4.90;99.90;;;;;;5030026;28;20492;-53
2021/01/31 04:16:44;;;;;;;21.97;11.73;;;4.80;99.90;;;;;;5026631;28;20450;-53
2021/01/31 04:19:11;;;;;;;22.90;12.43;;;4.90;99.90;;;;;;5030138;28;20979;-53
2021/01/31 04:21:39;;;;;;;22.57;11.50;;;5.00;99.90;;;;;;5033812;28;20453;-53
2021/01/31 04:24:06;;;;;;;20.80;10.80;;;5.00;99.90;;;;;;5029937;28;20479;-53
2021/01/31 04:26:33;;;;;;;26.80;11.80;;;5.10;99.90;;;;;;5030202;28;20523;-54
2021/01/31 04:28:59;;;;;;;22.93;12.10;;;5.10;99.90;;;;;;5030220;28;20456;-54
2021/01/31 04:31:26;;;;;;;20.50;11.67;;;5.20;99.90;;;;;;5030008;28;20450;-53
2021/01/31 04:33:53;;;;;;;24.60;13.53;;;5.10;99.90;;;;;;5036671;28;20907;-53
2021/01/31 04:36:20;;;;;;;25.27;13.30;;;5.00;99.90;;;;;;5042089;28;20440;-53
2021/01/31 04:38:47;;;;;;;24.80;13.37;;;5.00;99.90;;;;;;5030060;28;20449;-53
2021/01/31 04:41:15;;;;;;;20.60;11.80;;;5.00;99.90;;;;;;5029924;28;20483;-53
2021/01/31 04:43:45;;;;;;;23.10;13.10;;;5.00;99.90;;;;;;5030142;28;20477;-53
2021/01/31 04:46:19;;;;;;;32.83;15.83;;;5.30;99.90;;;;;;5030116;28;20452;-53
2021/01/31 04:49:05;;;;;;;32.17;15.50;;;5.30;99.90;;;;;;5036667;28;20457;-53
2021/01/31 04:51:44;;;;;;;27.13;13.97;;;5.20;99.90;;;;;;5028923;28;20460;-53
2021/01/31 04:54:31;;;;;;;27.40;12.53;;;5.10;99.90;;;;;;5033380;28;20492;-53
2021/01/31 04:57:07;;;;;;;20.50;11.23;;;5.30;99.90;;;;;;5033732;28;20448;-54
2021/01/31 04:59:37;;;;;;;19.33;11.03;;;5.50;99.90;;;;;;5017879;28;20480;-52
2021/01/31 05:02:07;;;;;;;21.33;11.50;;;5.40;99.90;;;;;;5039425;28;20454;-52
2021/01/31 05:04:39;;;;;;;17.20;8.90;;;5.50;99.90;;;;;;5033596;28;20465;-52
2021/01/31 05:07:07;;;;;;;14.80;8.70;;;5.30;99.90;;;;;;5033798;28;20449;-52
2021/01/31 05:09:35;;;;;;;15.10;8.97;;;5.30;99.90;;;;;;5033843;28;20451;-52
2021/01/31 05:12:12;;;;;;;18.30;10.10;;;5.20;99.90;;;;;;5033922;28;20881;-52
2021/01/31 05:15:02;;;;;;;20.13;10.87;;;5.10;99.90;;;;;;5033196;28;20456;-52
2021/01/31 05:17:31;;;;;;;19.53;10.67;;;4.90;99.90;;;;;;5025982;28;20502;-53
2021/01/31 05:19:58;;;;;;;26.67;12.43;;;4.90;99.90;;;;;;5032915;28;20538;-52
2021/01/31 05:22:30;;;;;;;23.23;12.17;;;4.90;99.90;;;;;;5033661;28;20576;-52
2021/01/31 05:24:58;;;;;;;24.40;12.43;;;5.20;99.90;;;;;;5033208;28;20448;-52
2021/01/31 05:27:29;;;;;;;19.83;11.87;;;5.30;99.90;;;;;;5033813;28;20452;-52
2021/01/31 05:29:56;;;;;;;19.47;11.20;;;5.20;99.90;;;;;;5033338;28;20503;-51
2021/01/31 05:32:22;;;;;;;20.00;10.37;;;5.20;99.90;;;;;;5033103;28;20538;-52
2021/01/31 05:34:51;;;;;;;19.13;10.70;;;5.30;99.90;;;;;;5034329;28;20452;-52
2021/01/31 05:37:20;;;;;;;22.43;11.20;;;5.10;99.90;;;;;;5033134;28;20459;-52
2021/01/31 05:39:48;;;;;;;20.17;10.73;;;5.30;99.90;;;;;;5033206;28;20476;-52
2021/01/31 05:42:18;;;;;;;23.23;10.97;;;5.30;99.90;;;;;;5033071;28;20453;-52
2021/01/31 05:44:57;;;;;;;20.17;10.97;;;5.20;99.90;;;;;;5032824;28;20452;-52
2021/01/31 05:47:25;;;;;;;18.90;10.60;;;5.30;99.90;;;;;;5032003;28;20892;-52
2021/01/31 05:49:54;;;;;;;20.97;11.83;;;5.30;99.90;;;;;;5032267;28;20453;-52
2021/01/31 05:52:35;;;;;;;17.50;10.40;;;5.30;99.90;;;;;;5032627;28;20495;-52
2021/01/31 05:55:16;;;;;;;24.63;12.13;;;5.30;99.90;;;;;;5033035;28;20539;-51
2021/01/31 05:57:44;;;;;;;22.20;12.17;;;5.40;99.90;;;;;;5033066;28;20444;-52
2021/01/31 06:00:24;;;;;;;19.07;10.43;;;5.30;99.90;;;;;;5032520;28;20477;-52
2021/01/31 06:03:02;;;;;;;18.97;10.50;;;5.30;99.90;;;;;;5033079;28;20494;-52
2021/01/31 06:05:30;;;;;;;18.30;10.50;;;5.40;99.90;;;;;;5033974;28;20507;-51
2021/01/31 06:08:03;;;;;;;21.20;11.90;;;5.30;99.90;;;;;;5032836;28;20575;-52
2021/01/31 06:10:31;;;;;;;25.17;13.43;;;5.10;99.90;;;;;;5032738;28;20451;-52
2021/01/31 06:13:07;;;;;;;18.73;11.67;;;4.90;99.90;;;;;;5032455;28;20479;-52
2021/01/31 06:15:39;;;;;;;23.33;13.17;;;4.80;99.90;;;;;;5032398;28;20449;-52
2021/01/31 06:18:20;;;;;;;19.30;11.83;;;4.90;99.90;;;;;;5056183;22;20546;-51
2021/01/31 06:20:47;;;;;;;17.50;9.60;;;4.80;99.90;;;;;;5036355;28;20488;-51
2021/01/31 06:23:20;;;;;;;16.13;9.80;;;5.00;99.90;;;;;;5052287;28;20509;-51
2021/01/31 06:25:47;;;;;;;15.60;9.60;;;5.00;99.90;;;;;;5039350;28;20454;-51
2021/01/31 06:28:20;;;;;;;15.67;9.80;;;5.00;99.90;;;;;;5026837;28;20478;-51
2021/01/31 06:30:56;;;;;;;17.10;9.40;;;4.90;99.90;;;;;;5022425;28;20953;-51
2021/01/31 06:33:22;;;;;;;16.90;9.83;;;4.80;99.90;;;;;;5032227;28;20938;-51
2021/01/31 06:35:56;;;;;;;17.00;9.53;;;4.80;99.90;;;;;;5028547;28;20458;-51
2021/01/31 06:38:32;;;;;;;16.73;10.07;;;4.90;99.90;;;;;;5012199;28;20814;-51
2021/01/31 06:41:11;;;;;;;18.37;9.87;;;5.00;99.90;;;;;;5012197;28;20491;-51
2021/01/31 06:43:51;;;;;;;19.10;10.47;;;5.10;99.90;;;;;;5012427;28;20445;-51
2021/01/31 06:46:25;;;;;;;18.97;10.93;;;4.90;99.90;;;;;;5012125;28;20970;-51
2021/01/31 06:49:02;;;;;;;18.20;10.83;;;4.80;99.90;;;;;;5012036;28;21113;-51
2021/01/31 06:51:45;;;;;;;19.40;11.20;;;4.80;99.90;;;;;;5012320;28;20470;-52
2021/01/31 06:54:48;;;;;;;19.03;10.73;;;4.80;99.90;;;;;;5010860;28;20517;-51
2021/01/31 06:57:43;;;;;;;18.50;10.43;;;4.80;99.90;;;;;;5001884;28;20457;-50
2021/01/31 07:00:44;;;;;;;20.20;11.13;;;5.00;99.90;;;;;;5012113;28;20488;-51
2021/01/31 07:03:45;;;;;;;21.13;11.87;;;5.00;99.90;;;;;;5012067;28;20444;-51
2021/01/31 07:06:42;;;;;;;25.30;12.23;;;4.90;99.90;;;;;;5012000;28;20966;-50
2021/01/31 07:09:27;;;;;;;24.90;13.30;;;4.80;99.90;;;;;;5009359;28;20480;-51
2021/01/31 07:12:01;;;;;;;29.83;14.93;;;5.10;99.90;;;;;;5011140;28;20453;-51
2021/01/31 07:14:40;;;;;;;30.60;15.33;;;5.10;99.90;;;;;;5012116;28;20430;-51
2021/01/31 07:17:24;;;;;;;29.97;15.07;;;4.90;99.90;;;;;;5011860;28;20452;-50
2021/01/31 07:19:55;;;;;;;30.07;14.57;;;4.80;99.90;;;;;;5011728;28;20477;-51
2021/01/31 07:22:32;;;;;;;29.40;14.53;;;4.70;99.90;;;;;;5011715;28;20453;-51
2021/01/31 07:25:03;;;;;;;32.90;15.17;;;4.80;99.90;;;;;;5011456;28;20450;-50
2021/01/31 07:27:38;;;;;;;27.30;14.60;;;4.70;99.90;;;;;;5011491;28;20453;-51
2021/01/31 07:30:15;;;;;;;32.20;16.00;;;4.80;99.90;;;;;;5011647;28;20456;-51
2021/01/31 07:33:13;;;;;;;29.20;14.70;;;4.70;99.90;;;;;;5011449;28;20460;-51
2021/01/31 07:35:54;;;;;;;27.73;14.23;;;4.60;99.90;;;;;;5011038;28;20884;-51
2021/01/31 07:38:34;;;;;;;27.23;13.77;;;4.80;99.90;;;;;;5011332;28;20485;-51
2021/01/31 07:41:03;;;;;;;27.20;14.20;;;4.80;99.90;;;;;;5011305;28;20827;-51
2021/01/31 07:43:33;;;;;;;28.67;13.60;;;4.80;99.90;;;;;;5009032;28;20469;-50
2021/01/31 07:46:02;;;;;;;32.30;16.50;;;4.90;99.90;;;;;;5009489;28;20450;-50
2021/01/31 07:48:55;;;;;;;32.63;16.70;;;4.90;99.90;;;;;;5006111;28;20219;-51
2021/01/31 07:52:04;;;;;;;31.07;15.30;;;4.80;99.90;;;;;;5007334;28;20441;-51
2021/01/31 07:54:35;;;;;;;34.20;17.67;;;4.80;99.90;;;;;;5012636;28;20523;-50
2021/01/31 07:57:32;;;;;;;36.67;18.57;;;4.70;99.90;;;;;;5010623;28;20462;-50
2021/01/31 07:59:59;;;;;;;32.27;16.77;;;4.80;99.90;;;;;;5010397;28;21002;-50
2021/01/31 08:02:40;;;;;;;30.77;16.10;;;4.90;99.90;;;;;;5018929;28;20445;-51
2021/01/31 08:05:12;;;;;;;33.93;17.53;;;4.90;99.90;;;;;;5030328;28;20483;-50
2021/01/31 08:08:04;;;;;;;34.27;16.87;;;5.00;99.90;;;;;;5007450;28;20511;-50
2021/01/31 08:10:46;;;;;;;33.00;17.30;;;5.10;99.90;;;;;;5010398;28;20472;-51
2021/01/31 08:13:33;;;;;;;33.00;16.20;;;5.20;99.90;;;;;;5009366;28;20468;-51
2021/01/31 08:16:00;;;;;;;31.73;16.20;;;5.30;99.90;;;;;;5007816;28;20453;-49
2021/01/31 08:18:26;;;;;;;32.37;17.10;;;5.30;99.90;;;;;;5009134;28;20567;-50
2021/01/31 08:20:55;;;;;;;36.60;18.17;;;5.30;99.90;;;;;;5010048;28;20916;-50
2021/01/31 08:23:54;;;;;;;37.97;17.40;;;5.30;99.90;;;;;;5013254;28;20536;-50
2021/01/31 08:26:45;;;;;;;31.63;15.60;;;5.50;99.90;;;;;;5016322;28;20453;-51
2021/01/31 08:29:33;;;;;;;34.20;16.80;;;5.50;99.90;;;;;;5015250;28;20556;-51
2021/01/31 08:32:20;;;;;;;30.50;14.53;;;5.60;99.90;;;;;;5016522;28;20460;-51
2021/01/31 08:35:21;;;;;;;32.17;16.00;;;5.60;99.90;;;;;;5016304;28;20464;-51
2021/01/31 08:37:51;;;;;;;30.30;15.80;;;5.60;99.90;;;;;;4972849;28;20479;-51
2021/01/31 08:40:24;;;;;;;32.50;15.70;;;5.50;99.90;;;;;;5008473;28;20476;-51
2021/01/31 08:42:56;;;;;;;28.73;15.60;;;5.60;99.90;;;;;;5015964;28;20460;-50
2021/01/31 08:45:39;;;;;;;31.17;15.37;;;5.70;99.90;;;;;;5015940;28;20868;-50
2021/01/31 08:48:06;;;;;;;31.90;15.87;;;5.70;99.90;;;;;;5014553;28;21272;-51
2021/01/31 08:50:33;;;;;;;31.40;15.80;;;5.70;99.90;;;;;;5011557;28;20800;-51
2021/01/31 08:53:02;;;;;;;33.37;16.60;;;5.90;99.90;;;;;;4999753;28;20545;-51
2021/01/31 08:55:28;;;;;;;31.83;17.97;;;5.90;99.90;;;;;;5014978;28;20459;-49
2021/01/31 08:58:03;;;;;;;32.77;16.60;;;6.10;99.90;;;;;;5014832;28;20534;-51
2021/01/31 09:00:32;;;;;;;29.30;15.40;;;6.00;99.90;;;;;;5015062;28;20546;-50
2021/01/31 09:02:59;;;;;;;29.30;14.93;;;5.90;99.90;;;;;;5015455;28;20453;-51
2021/01/31 09:05:26;;;;;;;29.60;15.80;;;5.80;99.90;;;;;;5015921;28;21129;-51
2021/01/31 09:08:02;;;;;;;28.57;16.43;;;5.90;99.90;;;;;;5015875;28;21020;-51
2021/01/31 09:10:39;;;;;;;29.03;15.07;;;6.10;99.90;;;;;;5014045;28;20446;-51
2021/01/31 09:13:17;;;;;;;29.08;16.67;;;6.30;99.90;;;;;;5014425;28;20450;-51
2021/01/31 09:15:44;;;;;;;24.47;14.20;;;6.30;99.90;;;;;;5015215;28;20253;-51
2021/01/31 09:18:19;;;;;;;25.07;13.20;;;6.40;99.90;;;;;;5016476;28;20484;-51
2021/01/31 09:20:46;;;;;;;25.57;13.50;;;6.40;99.90;;;;;;5016556;28;20484;-51
2021/01/31 09:23:17;;;;;;;24.33;13.70;;;6.40;99.90;;;;;;5016411;28;20453;-51
2021/01/31 09:25:44;;;;;;;28.97;14.33;;;6.40;99.90;;;;;;5016468;28;20539;-51
2021/01/31 09:28:16;;;;;;;23.83;13.03;;;6.20;99.90;;;;;;5016037;28;20471;-52
2021/01/31 09:30:44;;;;;;;22.50;12.23;;;6.30;99.90;;;;;;5015636;28;20477;-52
2021/01/31 09:33:14;;;;;;;25.50;12.57;;;6.30;99.90;;;;;;5028887;28;20457;-51
2021/01/31 09:35:41;;;;;;;26.50;13.03;;;6.30;99.90;;;;;;5012594;28;20457;-51
2021/01/31 09:38:16;;;;;;;21.37;13.07;;;6.30;99.90;;;;;;5012719;28;20477;-52
2021/01/31 09:40:43;;;;;;;22.73;12.27;;;6.50;99.90;;;;;;5013152;28;20911;-51
2021/01/31 09:43:16;;;;;;;19.00;11.30;;;6.40;99.90;;;;;;5013021;28;20473;-52
2021/01/31 09:45:45;;;;;;;22.63;12.47;;;6.40;99.90;;;;;;5012336;28;20460;-51
2021/01/31 09:48:14;;;;;;;23.07;12.73;;;6.40;99.90;;;;;;5012601;28;20470;-51
2021/01/31 09:50:45;;;;;;;22.30;12.30;;;6.50;99.90;;;;;;5013184;28;20454;-52
2021/01/31 09:53:26;;;;;;;23.13;12.33;;;6.50;99.90;;;;;;5012138;28;20963;-52
2021/01/31 09:55:52;;;;;;;21.57;12.53;;;6.60;99.90;;;;;;5012418;28;20458;-51
2021/01/31 09:58:22;;;;;;;21.20;12.20;;;6.80;99.90;;;;;;5011518;28;21002;-51
2021/01/31 10:00:50;;;;;;;26.17;12.97;;;6.80;99.90;;;;;;5012493;28;21345;-51
2021/01/31 10:03:28;;;;;;;22.67;12.73;;;6.60;99.90;;;;;;5012457;28;20461;-51
2021/01/31 10:06:11;;;;;;;22.30;12.00;;;6.70;99.90;;;;;;5007467;28;20541;-51
2021/01/31 10:08:44;;;;;;;22.33;12.77;;;6.70;99.90;;;;;;5011233;28;21062;-51
2021/01/31 10:11:28;;;;;;;21.10;12.37;;;6.80;99.90;;;;;;5011296;28;20819;-51
2021/01/31 10:13:55;;;;;;;19.93;12.03;;;6.90;99.90;;;;;;5008813;28;20488;-51
2021/01/31 10:16:24;;;;;;;23.03;12.17;;;6.90;99.90;;;;;;5012570;28;20550;-51
2021/01/31 10:18:51;;;;;;;20.70;12.23;;;6.80;99.90;;;;;;5012296;28;20484;-51
2021/01/31 10:21:29;;;;;;;19.73;11.50;;;6.80;99.90;;;;;;5012132;28;20482;-51
2021/01/31 10:24:06;;;;;;;25.30;12.33;;;7.00;99.90;;;;;;4996266;28;20460;-51
2021/01/31 10:26:33;;;;;;;19.63;11.67;;;6.90;99.90;;;;;;5011646;28;20955;-51
2021/01/31 10:29:01;;;;;;;18.60;11.30;;;7.00;99.90;;;;;;5012414;28;20844;-50
2021/01/31 10:31:32;;;;;;;20.63;12.30;;;7.10;99.90;;;;;;5008195;28;20453;-51
2021/01/31 10:34:00;;;;;;;22.67;12.83;;;7.20;99.90;;;;;;5012340;28;20516;-51
2021/01/31 10:36:35;;;;;;;20.20;12.30;;;7.60;99.90;;;;;;5012020;28;20465;-51
2021/01/31 10:39:24;;;;;;;22.77;12.63;;;7.70;99.90;;;;;;5012101;28;20472;-51
2021/01/31 10:41:50;;;;;;;20.30;12.27;;;8.00;99.90;;;;;;5011719;28;20500;-51
2021/01/31 10:44:23;;;;;;;18.87;11.50;;;8.20;99.90;;;;;;5007913;28;20461;-52
2021/01/31 10:46:49;;;;;;;19.90;12.13;;;8.30;99.90;;;;;;5010680;28;20465;-51
2021/01/31 10:49:16;;;;;;;21.43;12.77;;;8.20;99.90;;;;;;5012202;28;20477;-51
2021/01/31 10:51:44;;;;;;;20.30;11.30;;;8.10;99.90;;;;;;5011879;28;20544;-51
2021/01/31 10:54:12;;;;;;;25.40;11.77;;;8.30;99.90;;;;;;5011769;28;21030;-51
2021/01/31 10:56:38;;;;;;;18.70;11.13;;;8.20;99.90;;;;;;5011452;28;20453;-51
2021/01/31 10:59:05;;;;;;;19.53;11.70;;;8.00;99.90;;;;;;5011820;28;20469;-51
2021/01/31 11:01:32;;;;;;;19.83;10.73;;;8.20;99.90;;;;;;5012156;28;20523;-51
2021/01/31 11:03:58;;;;;;;18.60;10.47;;;8.30;99.90;;;;;;5011506;28;20461;-51
2021/01/31 11:06:27;;;;;;;16.80;10.87;;;8.30;99.90;;;;;;5011932;28;20445;-51
2021/01/31 11:08:54;;;;;;;17.23;10.40;;;8.40;99.90;;;;;;5011725;28;20473;-51
2021/01/31 11:11:23;;;;;;;16.30;9.50;;;8.40;99.90;;;;;;5010184;28;21002;-51
2021/01/31 11:13:50;;;;;;;14.67;9.70;;;8.30;99.90;;;;;;5011525;28;20445;-52
2021/01/31 11:16:18;;;;;;;11.27;7.40;;;8.20;99.90;;;;;;5011567;28;20456;-52
2021/01/31 11:18:47;;;;;;;14.10;7.83;;;8.30;99.90;;;;;;5011368;28;20477;-52
2021/01/31 11:21:18;;;;;;;16.03;8.80;;;8.40;99.90;;;;;;5011926;28;20485;-52
2021/01/31 11:23:46;;;;;;;14.80;7.13;;;8.40;99.90;;;;;;5011712;28;20457;-53
2021/01/31 11:26:12;;;;;;;9.53;6.80;;;8.50;99.90;;;;;;5011539;28;20460;-52
2021/01/31 11:28:40;;;;;;;11.27;7.50;;;8.50;99.90;;;;;;5009895;28;20992;-52
2021/01/31 11:31:06;;;;;;;12.30;7.13;;;8.50;99.90;;;;;;4994330;28;20457;-52
2021/01/31 11:33:32;;;;;;;10.03;5.60;;;8.70;99.90;;;;;;5005963;28;20978;-52
2021/01/31 11:35:59;;;;;;;10.53;5.63;;;8.80;99.90;;;;;;5010755;28;20454;-53
2021/01/31 11:38:25;;;;;;;9.20;6.00;;;8.70;99.90;;;;;;5010980;28;20485;-52
2021/01/31 11:40:53;;;;;;;9.07;6.07;;;8.70;99.90;;;;;;5010962;28;20826;-52
2021/01/31 11:43:19;;;;;;;7.40;4.90;;;8.70;99.90;;;;;;5010616;28;20445;-52
2021/01/31 11:45:47;;;;;;;4.37;3.37;;;8.60;99.90;;;;;;4991265;28;20491;-53
2021/01/31 11:48:13;;;;;;;5.90;3.47;;;8.70;99.90;;;;;;5002853;28;20505;-52
2021/01/31 11:50:40;;;;;;;5.80;3.67;;;8.50;99.90;;;;;;5011327;28;20456;-52
2021/01/31 11:53:06;;;;;;;4.10;3.00;;;8.50;99.90;;;;;;5010987;28;20461;-52
2021/01/31 11:55:33;;;;;;;4.77;3.60;;;8.50;99.90;;;;;;5010902;28;20457;-52
2021/01/31 11:57:59;;;;;;;4.70;3.63;;;8.20;99.90;;;;;;5010568;28;20477;-52
2021/01/31 12:00:26;;;;;;;4.57;3.33;;;8.10;99.90;;;;;;5010746;28;20480;-52
2021/01/31 12:02:53;;;;;;;5.70;3.30;;;8.10;99.90;;;;;;5010720;28;20958;-52
2021/01/31 12:05:22;;;;;;;5.75;3.80;;;8.10;99.90;;;;;;5016122;28;20536;-53
2021/01/31 12:07:49;;;;;;;5.70;3.93;;;8.40;99.90;;;;;;5012353;28;20234;-52
2021/01/31 12:10:16;;;;;;;8.70;4.90;;;8.40;99.90;;;;;;5010097;28;20898;-52
2021/01/31 12:12:43;;;;;;;6.77;5.37;;;8.40;99.90;;;;;;5005749;28;20968;-52
2021/01/31 12:15:13;;;;;;;9.70;6.30;;;8.40;99.90;;;;;;5011208;28;20449;-51
2021/01/31 12:17:40;;;;;;;8.53;5.80;;;8.50;99.90;;;;;;5010673;28;20484;-51
2021/01/31 12:20:10;;;;;;;8.05;5.70;;;8.40;99.90;;;;;;5051063;22;20449;-51
2021/01/31 12:22:36;;;;;;;11.13;6.63;;;8.60;99.90;;;;;;5031171;28;20205;-51
2021/01/31 12:25:04;;;;;;;8.57;5.90;;;8.60;99.90;;;;;;5049983;28;20448;-51
2021/01/31 12:27:30;;;;;;;8.27;5.17;;;8.60;99.90;;;;;;5050241;28;20452;-51
2021/01/31 12:29:57;;;;;;;9.50;5.90;;;8.60;99.90;;;;;;5050090;28;20472;-53
2021/01/31 12:32:24;;;;;;;9.37;5.23;;;8.50;99.90;;;;;;5033664;28;20466;-53
2021/01/31 12:34:50;;;;;;;8.60;5.93;;;8.50;99.90;;;;;;5049830;28;20827;-54
2021/01/31 12:37:19;;;;;;;8.50;5.77;;;8.50;99.90;;;;;;5037915;28;20824;-54
2021/01/31 12:39:46;;;;;;;8.63;5.17;;;8.50;99.90;;;;;;5030249;28;20464;-53
2021/01/31 12:42:12;;;;;;;7.20;5.47;;;8.60;99.90;;;;;;5030307;28;20480;-53
2021/01/31 12:44:39;;;;;;;7.77;5.43;;;8.50;99.90;;;;;;5029502;28;20901;-53
2021/01/31 12:47:06;;;;;;;8.40;5.10;;;8.50;99.90;;;;;;5030011;28;20890;-53
2021/01/31 12:49:32;;;;;;;7.27;5.33;;;8.50;99.90;;;;;;5027473;28;20480;-53
2021/01/31 12:51:59;;;;;;;7.50;5.47;;;8.30;99.90;;;;;;5032944;28;20805;-53
2021/01/31 12:54:26;;;;;;;8.97;5.20;;;8.30;99.90;;;;;;5029841;28;20444;-53
2021/01/31 12:56:53;;;;;;;6.03;3.80;;;8.20;99.90;;;;;;5042977;28;20983;-54
2021/01/31 12:59:19;;;;;;;6.80;4.40;;;8.20;99.90;;;;;;5037761;28;20468;-52
2021/01/31 13:01:46;;;;;;;6.93;4.50;;;8.20;99.90;;;;;;5030024;28;20488;-53
2021/01/31 13:04:13;;;;;;;7.20;4.63;;;8.10;99.90;;;;;;5029693;28;20455;-53
2021/01/31 13:06:40;;;;;;;6.47;4.40;;;8.00;99.90;;;;;;5029861;28;21055;-53
2021/01/31 13:09:06;;;;;;;6.43;4.37;;;7.90;99.90;;;;;;5030088;28;20468;-53